Station GBXA2 - Gambell, AK Image indicating link to RSS feed of recent meteorological observations for station GBXA2


Conditions at GBXA2 as of
(8:03 am AKDT)
1603 GMT on 07/21/2024:
     

Click on the graph icon in the table below to see a time series plot of the last five days of that observation.

5-day plot - Wind Direction Wind Direction (WDIR): S ( 170 deg true )
5-day plot - Wind Speed Wind Speed (WSPD): 11 kts
5-day plot - Wind Gust Wind Gust (GST): 18 kts
5-day plot - Air Temperature Air Temperature (ATMP): 50.7 °F
5-day plot - Dew Point Dew Point (DEWP): 48.0 °F
5-day plot - Wind Chill Wind Chill (CHILL): 46.0 °F
5-day plot - Wind Speed at 10 Meters Wind Speed at 10 meters (WSPD10M): 12 kts
5-day plot - Wind Speed at 20 Meters Wind Speed at 20 meters (WSPD20M): 12 kts
5-day plot -  Wind Speed, Wind Gust and Atmospheric Pressure Combined plot of Wind Speed, Gust, and Air Pressure
Previous observations
TIME
(AKDT)
5-day plot - Wind Direction
WDIR
 
5-day plot - Wind Speed
WSPD
kts
5-day plot - Wind Gust
GST
kts
5-day plot - Wave Height
WVHT
ft
5-day plot - Dominant Wave Period
DPD
sec
5-day plot - Average Wave Period
APD
sec
5-day plot - Mean Wave Direction
MWD
 
5-day plot - Atmospheric Pressure
PRES
in
5-day plot - Pressure Tendency
PTDY
in
5-day plot - Air Temperature
ATMP
°F
5-day plot - Water Temperature
WTMP
°F
5-day plot - Dew Point
DEWP
°F
5-day plot - Salinity
SAL
psu
5-day plot - Visibility
VIS
nmi
5-day plot - Tide (above MLLW)
TIDE
ft
2024-07-21 07:53 am S 11 18------ 49.6- 47.1---
2024-07-21 07:43 amSSE 10 18------ 49.3- 46.6---
2024-07-21 07:33 amSSE 11 18------ 49.1- 46.6---
2024-07-21 07:13 am SE 18 26------ 47.8- 45.1---
2024-07-21 07:03 am SE 20 27------ 47.5- 44.6---
2024-07-21 06:53 am SE 19 25------ 48.0- 45.1---
2024-07-21 06:43 am SE 19 26------ 48.7- 45.7---
2024-07-21 06:33 am SE 16 26------ 49.6- 46.8---
2024-07-21 06:23 am SE 14 24------ 50.4- 47.5---
2024-07-21 06:13 amSSE 13 24------ 50.2- 47.3---
2024-07-21 06:04 am SE 14 23------ 49.3- 46.4---
2024-07-21 05:43 am SE 18 27------ 46.8- 44.2---
2024-07-21 05:34 am SE 18 27------ 46.6- 44.1---
2024-07-21 05:23 am SE 16 26------ 46.4- 43.9---
2024-07-21 05:13 am SE 18 30------ 46.6- 44.1---
2024-07-21 05:04 am SE 21 30------ 46.6- 44.1---
2024-07-21 04:53 am SE 17 29------ 46.6- 43.9---
2024-07-21 04:43 am SE 21 28------ 46.9- 44.2---
2024-07-21 04:33 am SE 17 27------ 47.5- 44.6---
2024-07-21 04:23 am SE 15 24------ 48.2- 45.1---
2024-07-21 04:13 am SE 15 24------ 47.7- 44.8---
2024-07-21 04:03 am SE 14 23------ 47.7- 44.8---
2024-07-21 03:53 am SE 15 25------ 47.8- 45.0---
2024-07-21 03:33 amSSE 12 23------ 48.4- 45.5---
2024-07-21 03:23 am SE 16 26------ 48.4- 45.5---
2024-07-21 03:13 am SE 19 28------ 47.3- 44.6---
2024-07-21 03:03 am SE 20 28------ 46.9- 44.2---
2024-07-21 02:53 am SE 22 30------ 46.8- 44.1---
2024-07-21 02:43 am SE 23 33------ 46.9- 44.2---
2024-07-21 02:33 am SE 22 33------ 46.9- 44.2---
2024-07-21 02:23 am SE 20 28------ 46.8- 44.1---
2024-07-21 02:13 am SE 21 30------ 46.8- 44.1---
2024-07-21 02:03 am SE 21 30------ 46.6- 43.9---
2024-07-21 01:53 am SE 21 34------ 46.8- 44.1---
2024-07-21 01:43 am SE 18 29------ 46.4- 43.9---
2024-07-21 01:23 am SE 17 30------ 46.0- 43.5---
2024-07-21 01:14 am SE 23 34------ 45.9- 43.3---
2024-07-21 01:03 am SE 23 35------ 46.0- 43.3---
2024-07-21 12:53 am SE 27 38------ 46.2- 43.5---
2024-07-21 12:43 am SE 26 36------ 46.0- 43.3---
2024-07-21 12:33 am SE 28 39------ 46.0- 43.3---
2024-07-21 12:23 am SE 28 38------ 46.2- 43.5---
2024-07-21 12:13 am SE 25 37------ 46.6- 43.5---
2024-07-21 12:03 am SE 25 35------ 46.6- 43.5---
2024-07-20 11:53 pm SE 26 37------ 46.8- 43.7---
2024-07-20 11:43 pm SE 25 37------ 46.9- 43.9---
2024-07-20 11:33 pm SE 25 34------ 46.9- 43.9---
2024-07-20 11:23 pm SE 26 38------ 46.9- 43.9---
2024-07-20 11:13 pm SE 27 37------ 46.9- 43.9---
2024-07-20 11:03 pm SE 25 38------ 47.1- 44.1---
2024-07-20 10:53 pm SE 21 36------ 47.1- 44.1---
2024-07-20 10:43 pm SE 23 38------ 47.1- 44.1---
2024-07-20 10:33 pm SE 23 33------ 47.1- 44.1---
2024-07-20 10:23 pm SE 23 34------ 47.3- 44.2---
2024-07-20 10:13 pm SE 22 34------ 47.1- 44.1---
2024-07-20 10:03 pm SE 23 37------ 47.1- 44.1---
2024-07-20 09:53 pm SE 25 33------ 47.1- 44.1---
2024-07-20 09:43 pm SE 26 38------ 47.3- 44.2---
2024-07-20 09:33 pm SE 24 34------ 47.3- 44.2---
2024-07-20 09:24 pm SE 20 31------ 47.3- 44.2---
2024-07-20 09:13 pm SE 20 29------ 47.3- 44.2---
2024-07-20 09:03 pm SE 19 28------ 47.1- 44.1---
2024-07-20 08:53 pm SE 18 28------ 46.9- 43.9---
2024-07-20 08:44 pm SE 19 29------ 46.9- 43.9---
2024-07-20 08:34 pm SE 19 29------ 46.8- 43.7---
2024-07-20 08:24 pm SE 20 32------ 46.9- 44.1---
2024-07-20 08:13 pm SE 20 28------ 46.9- 44.2---
2024-07-20 08:03 pm SE 18 32------ 46.9- 44.2---
2024-07-20 07:53 pm SE 20 30------ 46.8- 44.1---
2024-07-20 07:43 pm SE 20 33------ 46.8- 44.1---
2024-07-20 07:33 pm SE 20 31------ 46.8- 44.1---
2024-07-20 07:23 pm SE 17 31------ 46.8- 44.1---
2024-07-20 07:13 pm SE 14 26------ 46.8- 44.1---
2024-07-20 07:03 pm SE 17 32------ 46.8- 44.1---
2024-07-20 06:53 pm SE 18 30------ 46.8- 44.1---
2024-07-20 06:43 pm SE 23 34------ 46.8- 44.1---
2024-07-20 06:33 pmESE 25 34------ 46.8- 44.1---
2024-07-20 06:23 pm SE 20 35------ 46.8- 43.9---
2024-07-20 06:13 pm SE 19 33------ 46.8- 43.7---
2024-07-20 06:03 pm SE 20 31------ 46.9- 43.9---
2024-07-20 05:53 pm SE 21 34------ 46.8- 43.7---
2024-07-20 05:43 pm SE 23 34------ 46.8- 43.5---
2024-07-20 05:33 pm SE 22 39------ 46.8- 43.3---
2024-07-20 05:23 pm SE 17 29------ 46.9- 43.7---
2024-07-20 05:13 pm SE 15 25------ 46.9- 43.9---
2024-07-20 05:04 pm SE 15 25------ 46.9- 43.9---
2024-07-20 04:53 pm SE 16 30------ 46.8- 43.7---
2024-07-20 04:43 pm SE 17 30------ 46.8- 43.7---
2024-07-20 04:34 pm SE 16 28------ 46.8- 43.7---
2024-07-20 04:23 pm SE 15 26------ 46.8- 43.5---
2024-07-20 04:13 pm SE 17 27------ 46.9- 43.5---
2024-07-20 03:53 pm SE 23 34------ 46.8- 43.7---
2024-07-20 03:43 pm SE 23 33------ 46.4- 43.3---
2024-07-20 03:33 pm SE 24 35------ 46.0- 43.0---
2024-07-20 03:23 pm SE 23 35------ 46.2- 43.2---
2024-07-20 03:13 pm SE 15 29------ 46.9- 43.5---
2024-07-20 03:03 pmSSE 9 18------ 47.3- 43.7---
2024-07-20 02:53 pm S 10 20------ 47.1- 43.0---
2024-07-20 02:43 pmSSE 10 21------ 47.1- 42.8---
2024-07-20 02:33 pmSSE 10 20------ 47.1- 43.0---
2024-07-20 02:24 pmSSE 10 19------ 46.8- 42.8---
2024-07-20 02:13 pmSSE 12 24------ 46.8- 42.8---
2024-07-20 02:03 pmSSE 10 23------ 46.9- 42.6---
2024-07-20 01:53 pmESE 14 23------ 46.9- 42.6---
2024-07-20 01:43 pmESE 15 23------ 46.9- 43.0---
2024-07-20 01:33 pmESE 16 25------ 46.2- 42.4---
2024-07-20 01:23 pmESE 13 21------ 45.9- 42.3---
2024-07-20 01:13 pmESE 13 22------ 45.7- 41.9---
2024-07-20 01:03 pmESE 13 22------ 45.7- 41.7---
2024-07-20 12:53 pm SE 15 26------ 45.5- 41.5---
2024-07-20 12:43 pmESE 19 33------ 45.3- 41.4---
2024-07-20 12:33 pmESE 25 33------ 45.0- 41.0---
2024-07-20 12:23 pmESE 26 33------ 44.6- 40.6---
2024-07-20 12:13 pmESE 23 31------ 44.2- 40.3---
2024-07-20 12:04 pmESE 22 32------ 44.2- 40.3---
2024-07-20 11:54 am SE 21 30------ 43.7- 40.1---
2024-07-20 11:44 am SE 18 31------ 43.3- 40.1---
2024-07-20 11:33 am SE 24 35------ 43.2- 39.7---
2024-07-20 11:23 am SE 25 34------ 43.2- 39.6---
2024-07-20 11:13 am SE 23 33------ 43.0- 39.4---
2024-07-20 11:03 am SE 25 34------ 42.4- 39.2---
2024-07-20 10:53 am SE 25 40------ 42.3- 39.0---
2024-07-20 10:43 am SE 23 33------ 41.9- 38.7---
2024-07-20 10:33 am SE 22 32------ 41.9- 38.7---
2024-07-20 10:23 amESE 25 36------ 41.7- 38.5---
2024-07-20 10:13 amESE 25 39------ 41.7- 38.5---
2024-07-20 10:03 am SE 24 37------ 41.7- 38.5---
2024-07-20 09:53 am SE 23 34------ 41.7- 38.5---
2024-07-20 09:43 am SE 24 36------ 41.5- 38.3---
2024-07-20 09:33 am SE 24 36------ 41.4- 38.1---
2024-07-20 09:23 am SE 26 39------ 41.4- 38.1---
2024-07-20 09:13 amESE 25 35------ 41.4- 38.1---
2024-07-20 09:03 amESE 24 36------ 41.2- 38.1---
2024-07-20 08:54 amESE 24 34------ 41.0- 38.1---
2024-07-20 08:44 amESE 25 33------ 40.8- 38.1---
2024-07-20 08:34 amESE 24 33------ 40.6- 38.1---
2024-07-20 08:24 am SE 17 28------ 40.3- 37.9---
2024-07-20 08:14 am SE 11 25------ 40.3- 37.9---
2024-07-20 08:04 am S 9 18------ 40.3- 37.9---
2024-07-20 07:54 amSSE 9 21------ 40.3- 37.9---